sensor_id;sensor_type;location;lat;lon;timestamp;P1;durP1;ratioP1;P2;durP2;ratioP2
16522;SDS011;19889;52.546;13.348;2022-12-07T00:01:59;10.73;;;6.23;;
16522;SDS011;19889;52.546;13.348;2022-12-07T00:04:25;10.00;;;6.17;;
16522;SDS011;19889;52.546;13.348;2022-12-07T00:06:52;10.57;;;6.87;;
16522;SDS011;19889;52.546;13.348;2022-12-07T00:09:19;11.67;;;6.70;;
16522;SDS011;19889;52.546;13.348;2022-12-07T00:11:48;13.70;;;6.83;;
16522;SDS011;19889;52.546;13.348;2022-12-07T00:14:16;9.10;;;6.27;;
16522;SDS011;19889;52.546;13.348;2022-12-07T00:16:44;8.73;;;5.97;;
16522;SDS011;19889;52.546;13.348;2022-12-07T00:19:13;9.30;;;5.90;;
16522;SDS011;19889;52.546;13.348;2022-12-07T00:21:40;9.87;;;6.13;;
16522;SDS011;19889;52.546;13.348;2022-12-07T00:24:07;8.77;;;5.73;;
16522;SDS011;19889;52.546;13.348;2022-12-07T00:26:36;10.80;;;6.73;;
16522;SDS011;19889;52.546;13.348;2022-12-07T00:29:05;10.50;;;6.50;;
16522;SDS011;19889;52.546;13.348;2022-12-07T00:31:36;11.53;;;6.90;;
16522;SDS011;19889;52.546;13.348;2022-12-07T00:34:04;9.33;;;5.93;;
16522;SDS011;19889;52.546;13.348;2022-12-07T00:36:33;11.53;;;6.40;;
16522;SDS011;19889;52.546;13.348;2022-12-07T00:39:00;9.57;;;6.23;;
16522;SDS011;19889;52.546;13.348;2022-12-07T00:41:28;10.97;;;6.70;;
16522;SDS011;19889;52.546;13.348;2022-12-07T00:43:55;10.40;;;5.90;;
16522;SDS011;19889;52.546;13.348;2022-12-07T00:46:22;9.17;;;5.90;;
16522;SDS011;19889;52.546;13.348;2022-12-07T00:48:50;9.73;;;6.90;;
16522;SDS011;19889;52.546;13.348;2022-12-07T00:51:20;12.37;;;7.43;;
16522;SDS011;19889;52.546;13.348;2022-12-07T00:53:49;8.93;;;6.53;;
16522;SDS011;19889;52.546;13.348;2022-12-07T00:56:17;10.40;;;6.10;;
16522;SDS011;19889;52.546;13.348;2022-12-07T00:58:49;9.63;;;6.10;;
16522;SDS011;19889;52.546;13.348;2022-12-07T01:01:18;10.10;;;6.27;;
16522;SDS011;19889;52.546;13.348;2022-12-07T01:03:45;8.87;;;6.47;;
16522;SDS011;19889;52.546;13.348;2022-12-07T01:06:13;8.07;;;5.80;;
16522;SDS011;19889;52.546;13.348;2022-12-07T01:08:41;9.40;;;5.90;;
16522;SDS011;19889;52.546;13.348;2022-12-07T01:11:12;6.87;;;5.33;;
16522;SDS011;19889;52.546;13.348;2022-12-07T01:13:39;8.63;;;5.77;;
16522;SDS011;19889;52.546;13.348;2022-12-07T01:16:07;8.23;;;5.50;;
16522;SDS011;19889;52.546;13.348;2022-12-07T01:18:36;7.87;;;5.50;;
16522;SDS011;19889;52.546;13.348;2022-12-07T01:21:04;7.60;;;5.33;;
16522;SDS011;19889;52.546;13.348;2022-12-07T01:23:32;10.00;;;5.67;;
16522;SDS011;19889;52.546;13.348;2022-12-07T01:26:01;8.27;;;5.53;;
16522;SDS011;19889;52.546;13.348;2022-12-07T01:28:30;7.87;;;5.53;;
16522;SDS011;19889;52.546;13.348;2022-12-07T01:30:58;9.53;;;6.13;;
16522;SDS011;19889;52.546;13.348;2022-12-07T01:33:27;8.37;;;5.50;;
16522;SDS011;19889;52.546;13.348;2022-12-07T01:35:54;7.87;;;5.90;;
16522;SDS011;19889;52.546;13.348;2022-12-07T01:38:26;7.77;;;5.80;;
16522;SDS011;19889;52.546;13.348;2022-12-07T01:40:54;7.47;;;5.30;;
16522;SDS011;19889;52.546;13.348;2022-12-07T01:43:21;6.87;;;5.17;;
16522;SDS011;19889;52.546;13.348;2022-12-07T01:45:51;6.20;;;4.80;;
16522;SDS011;19889;52.546;13.348;2022-12-07T01:48:19;7.33;;;4.97;;
16522;SDS011;19889;52.546;13.348;2022-12-07T01:50:50;7.90;;;4.77;;
16522;SDS011;19889;52.546;13.348;2022-12-07T01:53:19;7.17;;;4.47;;
16522;SDS011;19889;52.546;13.348;2022-12-07T01:55:48;5.60;;;4.30;;
16522;SDS011;19889;52.546;13.348;2022-12-07T01:58:17;7.20;;;5.20;;
16522;SDS011;19889;52.546;13.348;2022-12-07T02:00:44;6.20;;;4.83;;
16522;SDS011;19889;52.546;13.348;2022-12-07T02:03:13;7.07;;;4.57;;
16522;SDS011;19889;52.546;13.348;2022-12-07T02:05:44;6.30;;;4.90;;
16522;SDS011;19889;52.546;13.348;2022-12-07T02:08:12;6.93;;;5.30;;
16522;SDS011;19889;52.546;13.348;2022-12-07T02:10:40;7.87;;;5.10;;
16522;SDS011;19889;52.546;13.348;2022-12-07T02:13:09;8.80;;;4.77;;
16522;SDS011;19889;52.546;13.348;2022-12-07T02:15:42;5.80;;;4.20;;
16522;SDS011;19889;52.546;13.348;2022-12-07T02:18:20;7.23;;;4.30;;
16522;SDS011;19889;52.546;13.348;2022-12-07T02:20:54;4.93;;;4.13;;
16522;SDS011;19889;52.546;13.348;2022-12-07T02:23:37;6.83;;;4.27;;
16522;SDS011;19889;52.546;13.348;2022-12-07T02:29:21;8.17;;;4.27;;
16522;SDS011;19889;52.546;13.348;2022-12-07T02:31:51;5.67;;;4.30;;
16522;SDS011;19889;52.546;13.348;2022-12-07T02:34:26;5.97;;;4.23;;
16522;SDS011;19889;52.546;13.348;2022-12-07T02:37:03;5.13;;;4.33;;
16522;SDS011;19889;52.546;13.348;2022-12-07T02:39:40;7.03;;;4.03;;
16522;SDS011;19889;52.546;13.348;2022-12-07T02:42:12;6.93;;;4.57;;
16522;SDS011;19889;52.546;13.348;2022-12-07T02:44:44;7.30;;;4.53;;
16522;SDS011;19889;52.546;13.348;2022-12-07T02:47:14;6.70;;;4.47;;
16522;SDS011;19889;52.546;13.348;2022-12-07T02:49:43;7.77;;;4.23;;
16522;SDS011;19889;52.546;13.348;2022-12-07T02:52:11;7.90;;;5.30;;
16522;SDS011;19889;52.546;13.348;2022-12-07T02:54:38;7.83;;;5.13;;
16522;SDS011;19889;52.546;13.348;2022-12-07T02:57:09;7.20;;;4.87;;
16522;SDS011;19889;52.546;13.348;2022-12-07T02:59:49;6.50;;;4.60;;
16522;SDS011;19889;52.546;13.348;2022-12-07T03:02:29;8.53;;;4.93;;
16522;SDS011;19889;52.546;13.348;2022-12-07T03:05:05;9.13;;;5.40;;
16522;SDS011;19889;52.546;13.348;2022-12-07T03:07:45;7.27;;;4.90;;
16522;SDS011;19889;52.546;13.348;2022-12-07T03:10:19;7.07;;;4.47;;
16522;SDS011;19889;52.546;13.348;2022-12-07T03:12:56;7.73;;;5.27;;
16522;SDS011;19889;52.546;13.348;2022-12-07T03:15:31;9.03;;;5.07;;
16522;SDS011;19889;52.546;13.348;2022-12-07T03:18:02;6.77;;;4.83;;
16522;SDS011;19889;52.546;13.348;2022-12-07T03:20:31;8.57;;;5.17;;
16522;SDS011;19889;52.546;13.348;2022-12-07T03:23:01;7.87;;;5.23;;
16522;SDS011;19889;52.546;13.348;2022-12-07T03:25:30;10.13;;;5.40;;
16522;SDS011;19889;52.546;13.348;2022-12-07T03:28:00;7.57;;;5.50;;
16522;SDS011;19889;52.546;13.348;2022-12-07T03:30:33;11.17;;;6.47;;
16522;SDS011;19889;52.546;13.348;2022-12-07T03:33:06;8.73;;;6.00;;
16522;SDS011;19889;52.546;13.348;2022-12-07T03:35:36;12.10;;;6.70;;
16522;SDS011;19889;52.546;13.348;2022-12-07T03:38:08;10.77;;;7.30;;
16522;SDS011;19889;52.546;13.348;2022-12-07T03:40:43;11.47;;;7.57;;
16522;SDS011;19889;52.546;13.348;2022-12-07T03:43:15;12.13;;;7.00;;
16522;SDS011;19889;52.546;13.348;2022-12-07T03:45:47;11.33;;;7.17;;
16522;SDS011;19889;52.546;13.348;2022-12-07T03:48:27;11.90;;;6.83;;
16522;SDS011;19889;52.546;13.348;2022-12-07T03:51:00;13.23;;;7.03;;
16522;SDS011;19889;52.546;13.348;2022-12-07T03:53:33;11.07;;;6.30;;
16522;SDS011;19889;52.546;13.348;2022-12-07T03:56:03;12.47;;;6.67;;
16522;SDS011;19889;52.546;13.348;2022-12-07T03:58:31;11.87;;;7.00;;
16522;SDS011;19889;52.546;13.348;2022-12-07T04:01:01;11.80;;;6.80;;
16522;SDS011;19889;52.546;13.348;2022-12-07T04:03:29;11.03;;;6.33;;
16522;SDS011;19889;52.546;13.348;2022-12-07T04:05:55;12.03;;;6.73;;
16522;SDS011;19889;52.546;13.348;2022-12-07T04:08:23;14.03;;;7.67;;
16522;SDS011;19889;52.546;13.348;2022-12-07T04:10:50;13.33;;;7.97;;
16522;SDS011;19889;52.546;13.348;2022-12-07T04:13:17;15.83;;;8.57;;
16522;SDS011;19889;52.546;13.348;2022-12-07T04:15:44;12.10;;;7.23;;
16522;SDS011;19889;52.546;13.348;2022-12-07T04:18:13;13.20;;;7.40;;
16522;SDS011;19889;52.546;13.348;2022-12-07T04:20:40;18.77;;;9.27;;
16522;SDS011;19889;52.546;13.348;2022-12-07T04:23:07;14.90;;;8.90;;
16522;SDS011;19889;52.546;13.348;2022-12-07T04:25:34;13.40;;;8.27;;
16522;SDS011;19889;52.546;13.348;2022-12-07T04:28:01;13.73;;;8.70;;
16522;SDS011;19889;52.546;13.348;2022-12-07T04:30:28;15.00;;;8.67;;
16522;SDS011;19889;52.546;13.348;2022-12-07T04:32:55;12.43;;;7.67;;
16522;SDS011;19889;52.546;13.348;2022-12-07T04:35:23;18.70;;;8.83;;
16522;SDS011;19889;52.546;13.348;2022-12-07T04:37:50;13.50;;;8.40;;
16522;SDS011;19889;52.546;13.348;2022-12-07T04:40:17;17.53;;;10.47;;
16522;SDS011;19889;52.546;13.348;2022-12-07T04:42:44;18.20;;;10.67;;
16522;SDS011;19889;52.546;13.348;2022-12-07T04:45:11;14.23;;;8.67;;
16522;SDS011;19889;52.546;13.348;2022-12-07T04:47:38;14.67;;;9.10;;
16522;SDS011;19889;52.546;13.348;2022-12-07T04:50:05;11.30;;;7.80;;
16522;SDS011;19889;52.546;13.348;2022-12-07T04:52:34;18.23;;;10.80;;
16522;SDS011;19889;52.546;13.348;2022-12-07T04:55:01;14.40;;;8.50;;
16522;SDS011;19889;52.546;13.348;2022-12-07T04:57:28;13.67;;;8.80;;
16522;SDS011;19889;52.546;13.348;2022-12-07T04:59:55;15.70;;;9.93;;
16522;SDS011;19889;52.546;13.348;2022-12-07T05:02:22;15.23;;;10.17;;
16522;SDS011;19889;52.546;13.348;2022-12-07T05:04:49;14.33;;;9.30;;
16522;SDS011;19889;52.546;13.348;2022-12-07T05:07:16;18.57;;;9.63;;
16522;SDS011;19889;52.546;13.348;2022-12-07T05:09:45;16.37;;;10.00;;
16522;SDS011;19889;52.546;13.348;2022-12-07T05:12:12;17.20;;;10.23;;
16522;SDS011;19889;52.546;13.348;2022-12-07T05:14:39;18.33;;;10.50;;
16522;SDS011;19889;52.546;13.348;2022-12-07T05:17:06;16.97;;;10.83;;
16522;SDS011;19889;52.546;13.348;2022-12-07T05:19:33;17.07;;;9.70;;
16522;SDS011;19889;52.546;13.348;2022-12-07T05:22:00;16.00;;;10.30;;
16522;SDS011;19889;52.546;13.348;2022-12-07T05:24:27;19.57;;;11.27;;
16522;SDS011;19889;52.546;13.348;2022-12-07T05:26:55;18.30;;;11.03;;
16522;SDS011;19889;52.546;13.348;2022-12-07T05:29:22;22.23;;;11.00;;
16522;SDS011;19889;52.546;13.348;2022-12-07T05:31:49;15.10;;;9.67;;
16522;SDS011;19889;52.546;13.348;2022-12-07T05:34:16;17.13;;;10.17;;
16522;SDS011;19889;52.546;13.348;2022-12-07T05:36:43;19.47;;;11.30;;
16522;SDS011;19889;52.546;13.348;2022-12-07T05:39:10;25.37;;;13.80;;
16522;SDS011;19889;52.546;13.348;2022-12-07T05:41:37;19.43;;;10.83;;
16522;SDS011;19889;52.546;13.348;2022-12-07T05:44:34;18.17;;;10.83;;
16522;SDS011;19889;52.546;13.348;2022-12-07T05:47:01;22.30;;;11.13;;
16522;SDS011;19889;52.546;13.348;2022-12-07T05:49:28;16.30;;;10.53;;
16522;SDS011;19889;52.546;13.348;2022-12-07T05:51:55;20.10;;;11.77;;
16522;SDS011;19889;52.546;13.348;2022-12-07T05:54:22;19.90;;;11.73;;
16522;SDS011;19889;52.546;13.348;2022-12-07T05:56:49;21.13;;;11.47;;
16522;SDS011;19889;52.546;13.348;2022-12-07T05:59:16;18.90;;;11.33;;
16522;SDS011;19889;52.546;13.348;2022-12-07T06:01:50;22.23;;;11.30;;
16522;SDS011;19889;52.546;13.348;2022-12-07T06:04:18;19.47;;;10.70;;
16522;SDS011;19889;52.546;13.348;2022-12-07T06:06:45;19.37;;;11.57;;
16522;SDS011;19889;52.546;13.348;2022-12-07T06:09:13;19.23;;;11.37;;
16522;SDS011;19889;52.546;13.348;2022-12-07T06:11:40;26.83;;;12.43;;
16522;SDS011;19889;52.546;13.348;2022-12-07T06:14:25;23.93;;;12.83;;
16522;SDS011;19889;52.546;13.348;2022-12-07T06:16:53;20.60;;;11.13;;
16522;SDS011;19889;52.546;13.348;2022-12-07T06:19:20;22.00;;;11.10;;
16522;SDS011;19889;52.546;13.348;2022-12-07T06:21:47;21.63;;;12.07;;
16522;SDS011;19889;52.546;13.348;2022-12-07T06:24:15;19.67;;;10.87;;
16522;SDS011;19889;52.546;13.348;2022-12-07T06:26:43;19.10;;;11.20;;
16522;SDS011;19889;52.546;13.348;2022-12-07T06:29:10;18.80;;;10.77;;
16522;SDS011;19889;52.546;13.348;2022-12-07T06:31:38;16.77;;;9.67;;
16522;SDS011;19889;52.546;13.348;2022-12-07T06:34:07;20.00;;;10.43;;
16522;SDS011;19889;52.546;13.348;2022-12-07T06:36:36;16.00;;;10.07;;
16522;SDS011;19889;52.546;13.348;2022-12-07T06:39:04;18.20;;;10.20;;
16522;SDS011;19889;52.546;13.348;2022-12-07T06:41:34;22.57;;;11.27;;
16522;SDS011;19889;52.546;13.348;2022-12-07T06:44:01;18.50;;;10.97;;
16522;SDS011;19889;52.546;13.348;2022-12-07T06:46:29;21.37;;;11.13;;
16522;SDS011;19889;52.546;13.348;2022-12-07T06:48:56;26.17;;;13.80;;
16522;SDS011;19889;52.546;13.348;2022-12-07T06:51:24;20.27;;;11.60;;
16522;SDS011;19889;52.546;13.348;2022-12-07T06:53:52;18.80;;;11.53;;
16522;SDS011;19889;52.546;13.348;2022-12-07T06:56:19;24.20;;;12.77;;
16522;SDS011;19889;52.546;13.348;2022-12-07T06:58:47;21.00;;;11.20;;
16522;SDS011;19889;52.546;13.348;2022-12-07T07:01:16;19.13;;;10.73;;
16522;SDS011;19889;52.546;13.348;2022-12-07T07:03:44;20.23;;;11.60;;
16522;SDS011;19889;52.546;13.348;2022-12-07T07:06:12;20.67;;;11.23;;
16522;SDS011;19889;52.546;13.348;2022-12-07T07:08:41;16.83;;;11.23;;
16522;SDS011;19889;52.546;13.348;2022-12-07T07:11:08;17.77;;;9.77;;
16522;SDS011;19889;52.546;13.348;2022-12-07T07:13:36;20.23;;;10.77;;
16522;SDS011;19889;52.546;13.348;2022-12-07T07:16:03;17.80;;;10.83;;
16522;SDS011;19889;52.546;13.348;2022-12-07T07:18:31;19.23;;;10.97;;
16522;SDS011;19889;52.546;13.348;2022-12-07T07:20:58;24.17;;;11.30;;
16522;SDS011;19889;52.546;13.348;2022-12-07T07:23:25;17.13;;;10.63;;
16522;SDS011;19889;52.546;13.348;2022-12-07T07:25:54;17.13;;;10.63;;
16522;SDS011;19889;52.546;13.348;2022-12-07T07:28:21;15.13;;;9.93;;
16522;SDS011;19889;52.546;13.348;2022-12-07T07:30:49;22.97;;;10.73;;
16522;SDS011;19889;52.546;13.348;2022-12-07T07:33:16;21.10;;;10.30;;
16522;SDS011;19889;52.546;13.348;2022-12-07T07:35:43;56.27;;;31.83;;
16522;SDS011;19889;52.546;13.348;2022-12-07T07:38:10;24.50;;;10.40;;
16522;SDS011;19889;52.546;13.348;2022-12-07T07:40:37;18.13;;;10.07;;
16522;SDS011;19889;52.546;13.348;2022-12-07T07:43:05;15.73;;;8.70;;
16522;SDS011;19889;52.546;13.348;2022-12-07T07:45:32;17.83;;;8.37;;
16522;SDS011;19889;52.546;13.348;2022-12-07T07:47:59;17.07;;;9.13;;
16522;SDS011;19889;52.546;13.348;2022-12-07T07:50:26;16.77;;;8.33;;
16522;SDS011;19889;52.546;13.348;2022-12-07T07:52:52;14.17;;;7.93;;
16522;SDS011;19889;52.546;13.348;2022-12-07T07:55:19;14.67;;;8.97;;
16522;SDS011;19889;52.546;13.348;2022-12-07T07:57:46;17.13;;;8.07;;
16522;SDS011;19889;52.546;13.348;2022-12-07T08:00:15;11.70;;;8.20;;
16522;SDS011;19889;52.546;13.348;2022-12-07T08:02:43;14.77;;;8.03;;
16522;SDS011;19889;52.546;13.348;2022-12-07T08:05:11;11.13;;;6.23;;
16522;SDS011;19889;52.546;13.348;2022-12-07T08:07:39;39.23;;;16.20;;
16522;SDS011;19889;52.546;13.348;2022-12-07T08:10:07;9.50;;;6.00;;
16522;SDS011;19889;52.546;13.348;2022-12-07T08:12:36;16.03;;;7.20;;
16522;SDS011;19889;52.546;13.348;2022-12-07T08:15:26;11.30;;;6.67;;
16522;SDS011;19889;52.546;13.348;2022-12-07T08:17:54;15.27;;;6.07;;
16522;SDS011;19889;52.546;13.348;2022-12-07T08:20:22;8.30;;;5.13;;
16522;SDS011;19889;52.546;13.348;2022-12-07T08:22:49;9.13;;;5.60;;
16522;SDS011;19889;52.546;13.348;2022-12-07T08:25:16;13.10;;;5.53;;
16522;SDS011;19889;52.546;13.348;2022-12-07T08:27:44;10.47;;;7.53;;
16522;SDS011;19889;52.546;13.348;2022-12-07T08:30:11;11.97;;;5.10;;
16522;SDS011;19889;52.546;13.348;2022-12-07T08:32:39;11.87;;;4.67;;
16522;SDS011;19889;52.546;13.348;2022-12-07T08:35:06;11.47;;;4.40;;
16522;SDS011;19889;52.546;13.348;2022-12-07T08:37:34;4.83;;;3.80;;
16522;SDS011;19889;52.546;13.348;2022-12-07T08:40:01;6.40;;;3.50;;
16522;SDS011;19889;52.546;13.348;2022-12-07T08:42:28;4.70;;;3.50;;
16522;SDS011;19889;52.546;13.348;2022-12-07T08:45:03;10.20;;;3.80;;
16522;SDS011;19889;52.546;13.348;2022-12-07T08:47:31;4.47;;;3.07;;
16522;SDS011;19889;52.546;13.348;2022-12-07T08:50:00;3.43;;;3.03;;
16522;SDS011;19889;52.546;13.348;2022-12-07T08:52:30;7.70;;;4.40;;
16522;SDS011;19889;52.546;13.348;2022-12-07T08:54:57;7.60;;;3.70;;
16522;SDS011;19889;52.546;13.348;2022-12-07T08:57:25;3.30;;;2.47;;
16522;SDS011;19889;52.546;13.348;2022-12-07T08:59:53;3.57;;;2.60;;
16522;SDS011;19889;52.546;13.348;2022-12-07T09:02:20;3.63;;;2.70;;
16522;SDS011;19889;52.546;13.348;2022-12-07T09:04:47;3.20;;;2.90;;
16522;SDS011;19889;52.546;13.348;2022-12-07T09:07:16;3.57;;;2.87;;
16522;SDS011;19889;52.546;13.348;2022-12-07T09:09:43;4.23;;;2.83;;
16522;SDS011;19889;52.546;13.348;2022-12-07T09:12:10;2.73;;;2.10;;
16522;SDS011;19889;52.546;13.348;2022-12-07T09:14:37;7.60;;;3.30;;
16522;SDS011;19889;52.546;13.348;2022-12-07T09:17:04;3.53;;;2.13;;
16522;SDS011;19889;52.546;13.348;2022-12-07T09:19:33;4.97;;;2.43;;
16522;SDS011;19889;52.546;13.348;2022-12-07T09:22:00;2.10;;;1.90;;
16522;SDS011;19889;52.546;13.348;2022-12-07T09:24:28;2.00;;;1.90;;
16522;SDS011;19889;52.546;13.348;2022-12-07T09:26:56;4.43;;;1.93;;
16522;SDS011;19889;52.546;13.348;2022-12-07T09:29:23;3.03;;;2.03;;
16522;SDS011;19889;52.546;13.348;2022-12-07T09:31:50;1.73;;;1.63;;
16522;SDS011;19889;52.546;13.348;2022-12-07T09:34:17;2.50;;;2.00;;
16522;SDS011;19889;52.546;13.348;2022-12-07T09:36:45;3.40;;;2.07;;
16522;SDS011;19889;52.546;13.348;2022-12-07T09:39:12;5.13;;;1.70;;
16522;SDS011;19889;52.546;13.348;2022-12-07T09:41:41;2.30;;;1.97;;
16522;SDS011;19889;52.546;13.348;2022-12-07T09:44:11;6.73;;;2.23;;
16522;SDS011;19889;52.546;13.348;2022-12-07T09:46:40;3.47;;;2.17;;
16522;SDS011;19889;52.546;13.348;2022-12-07T09:49:09;2.07;;;1.93;;
16522;SDS011;19889;52.546;13.348;2022-12-07T09:51:40;2.43;;;2.07;;
16522;SDS011;19889;52.546;13.348;2022-12-07T09:54:08;3.77;;;2.60;;
16522;SDS011;19889;52.546;13.348;2022-12-07T09:56:38;2.00;;;1.90;;
16522;SDS011;19889;52.546;13.348;2022-12-07T09:59:09;2.13;;;1.70;;
16522;SDS011;19889;52.546;13.348;2022-12-07T10:01:42;1.40;;;1.30;;
16522;SDS011;19889;52.546;13.348;2022-12-07T10:04:10;3.10;;;1.97;;
16522;SDS011;19889;52.546;13.348;2022-12-07T10:06:40;2.47;;;2.17;;
16522;SDS011;19889;52.546;13.348;2022-12-07T10:09:09;2.30;;;2.10;;
16522;SDS011;19889;52.546;13.348;2022-12-07T10:14:27;1.70;;;1.60;;
16522;SDS011;19889;52.546;13.348;2022-12-07T10:16:55;1.77;;;1.50;;
16522;SDS011;19889;52.546;13.348;2022-12-07T10:19:24;4.60;;;1.80;;
16522;SDS011;19889;52.546;13.348;2022-12-07T10:22:02;2.87;;;1.67;;
16522;SDS011;19889;52.546;13.348;2022-12-07T10:24:33;2.33;;;1.70;;
16522;SDS011;19889;52.546;13.348;2022-12-07T10:27:03;6.37;;;2.00;;
16522;SDS011;19889;52.546;13.348;2022-12-07T10:29:31;1.70;;;1.60;;
16522;SDS011;19889;52.546;13.348;2022-12-07T10:32:01;3.63;;;2.10;;
16522;SDS011;19889;52.546;13.348;2022-12-07T10:34:36;1.70;;;1.60;;
16522;SDS011;19889;52.546;13.348;2022-12-07T10:37:12;2.70;;;1.80;;
16522;SDS011;19889;52.546;13.348;2022-12-07T10:39:43;2.73;;;2.17;;
16522;SDS011;19889;52.546;13.348;2022-12-07T10:42:17;2.73;;;2.17;;
16522;SDS011;19889;52.546;13.348;2022-12-07T10:44:45;2.30;;;2.10;;
16522;SDS011;19889;52.546;13.348;2022-12-07T10:47:16;2.17;;;1.87;;
16522;SDS011;19889;52.546;13.348;2022-12-07T10:56:07;3.13;;;2.10;;
16522;SDS011;19889;52.546;13.348;2022-12-07T10:58:52;3.27;;;2.37;;
16522;SDS011;19889;52.546;13.348;2022-12-07T11:01:30;2.80;;;2.40;;
16522;SDS011;19889;52.546;13.348;2022-12-07T11:04:07;4.40;;;2.77;;
16522;SDS011;19889;52.546;13.348;2022-12-07T11:06:45;2.50;;;2.30;;
16522;SDS011;19889;52.546;13.348;2022-12-07T11:09:22;2.80;;;2.60;;
16522;SDS011;19889;52.546;13.348;2022-12-07T11:12:03;2.57;;;2.23;;
16522;SDS011;19889;52.546;13.348;2022-12-07T11:14:37;3.23;;;2.70;;
16522;SDS011;19889;52.546;13.348;2022-12-07T11:17:12;6.07;;;2.80;;
16522;SDS011;19889;52.546;13.348;2022-12-07T11:19:48;2.23;;;2.03;;
16522;SDS011;19889;52.546;13.348;2022-12-07T11:22:26;5.43;;;2.60;;
16522;SDS011;19889;52.546;13.348;2022-12-07T11:25:02;5.60;;;2.97;;
16522;SDS011;19889;52.546;13.348;2022-12-07T11:27:43;2.97;;;2.50;;
16522;SDS011;19889;52.546;13.348;2022-12-07T11:30:17;4.03;;;3.10;;
16522;SDS011;19889;52.546;13.348;2022-12-07T11:32:59;3.03;;;2.70;;
16522;SDS011;19889;52.546;13.348;2022-12-07T11:35:43;2.90;;;2.70;;
16522;SDS011;19889;52.546;13.348;2022-12-07T11:38:17;3.73;;;3.33;;
16522;SDS011;19889;52.546;13.348;2022-12-07T11:40:48;4.10;;;3.13;;
16522;SDS011;19889;52.546;13.348;2022-12-07T11:43:19;3.90;;;3.47;;
16522;SDS011;19889;52.546;13.348;2022-12-07T11:45:54;7.20;;;3.50;;
16522;SDS011;19889;52.546;13.348;2022-12-07T11:48:29;5.77;;;3.07;;
16522;SDS011;19889;52.546;13.348;2022-12-07T11:51:00;5.40;;;3.23;;
16522;SDS011;19889;52.546;13.348;2022-12-07T11:53:30;4.13;;;3.07;;
16522;SDS011;19889;52.546;13.348;2022-12-07T11:56:06;5.13;;;3.33;;
16522;SDS011;19889;52.546;13.348;2022-12-07T11:58:39;6.83;;;2.77;;
16522;SDS011;19889;52.546;13.348;2022-12-07T12:01:18;4.90;;;2.87;;
16522;SDS011;19889;52.546;13.348;2022-12-07T12:04:06;3.13;;;2.87;;
16522;SDS011;19889;52.546;13.348;2022-12-07T12:06:46;6.50;;;2.83;;
16522;SDS011;19889;52.546;13.348;2022-12-07T12:09:13;2.97;;;2.73;;
16522;SDS011;19889;52.546;13.348;2022-12-07T12:11:47;4.83;;;3.40;;
16522;SDS011;19889;52.546;13.348;2022-12-07T12:14:35;6.57;;;4.17;;
16522;SDS011;19889;52.546;13.348;2022-12-07T12:17:18;6.93;;;3.33;;
16522;SDS011;19889;52.546;13.348;2022-12-07T12:20:00;6.53;;;3.10;;
16522;SDS011;19889;52.546;13.348;2022-12-07T12:22:33;3.77;;;3.00;;
16522;SDS011;19889;52.546;13.348;2022-12-07T12:25:04;7.30;;;3.17;;
16522;SDS011;19889;52.546;13.348;2022-12-07T12:27:34;2.63;;;2.43;;
16522;SDS011;19889;52.546;13.348;2022-12-07T12:30:05;7.33;;;2.83;;
16522;SDS011;19889;52.546;13.348;2022-12-07T12:32:38;4.13;;;2.20;;
16522;SDS011;19889;52.546;13.348;2022-12-07T12:35:27;4.47;;;2.30;;
16522;SDS011;19889;52.546;13.348;2022-12-07T12:38:19;3.93;;;2.37;;
16522;SDS011;19889;52.546;13.348;2022-12-07T12:40:52;5.60;;;2.50;;
16522;SDS011;19889;52.546;13.348;2022-12-07T12:55:29;4.90;;;2.43;;
16522;SDS011;19889;52.546;13.348;2022-12-07T12:58:38;5.27;;;2.23;;
16522;SDS011;19889;52.546;13.348;2022-12-07T13:10:38;5.37;;;2.23;;
16522;SDS011;19889;52.546;13.348;2022-12-07T13:13:30;7.83;;;2.27;;
16522;SDS011;19889;52.546;13.348;2022-12-07T13:25:21;4.00;;;2.30;;
16522;SDS011;19889;52.546;13.348;2022-12-07T13:27:57;2.60;;;1.80;;
16522;SDS011;19889;52.546;13.348;2022-12-07T13:30:27;6.70;;;3.23;;
16522;SDS011;19889;52.546;13.348;2022-12-07T13:32:57;4.73;;;2.23;;
16522;SDS011;19889;52.546;13.348;2022-12-07T13:35:29;4.83;;;3.00;;
16522;SDS011;19889;52.546;13.348;2022-12-07T13:37:58;8.67;;;3.37;;
16522;SDS011;19889;52.546;13.348;2022-12-07T13:40:28;8.80;;;4.40;;
16522;SDS011;19889;52.546;13.348;2022-12-07T13:42:59;2.57;;;2.27;;
16522;SDS011;19889;52.546;13.348;2022-12-07T13:45:27;6.23;;;2.23;;
16522;SDS011;19889;52.546;13.348;2022-12-07T13:48:15;10.30;;;2.27;;
16522;SDS011;19889;52.546;13.348;2022-12-07T13:50:52;3.07;;;1.93;;
16522;SDS011;19889;52.546;13.348;2022-12-07T13:53:20;3.90;;;1.90;;
16522;SDS011;19889;52.546;13.348;2022-12-07T13:55:49;4.00;;;1.97;;
16522;SDS011;19889;52.546;13.348;2022-12-07T13:58:16;6.97;;;2.23;;
16522;SDS011;19889;52.546;13.348;2022-12-07T14:00:43;3.73;;;2.00;;
16522;SDS011;19889;52.546;13.348;2022-12-07T14:03:23;4.93;;;2.17;;
16522;SDS011;19889;52.546;13.348;2022-12-07T14:06:11;8.07;;;2.30;;
16522;SDS011;19889;52.546;13.348;2022-12-07T14:08:45;2.90;;;2.00;;
16522;SDS011;19889;52.546;13.348;2022-12-07T14:11:15;3.47;;;1.83;;
16522;SDS011;19889;52.546;13.348;2022-12-07T14:13:45;7.87;;;2.73;;
16522;SDS011;19889;52.546;13.348;2022-12-07T14:16:24;3.87;;;2.23;;
16522;SDS011;19889;52.546;13.348;2022-12-07T14:18:54;2.60;;;1.83;;
16522;SDS011;19889;52.546;13.348;2022-12-07T14:21:22;9.23;;;2.10;;
16522;SDS011;19889;52.546;13.348;2022-12-07T14:24:04;6.20;;;2.00;;
16522;SDS011;19889;52.546;13.348;2022-12-07T14:26:42;4.87;;;2.10;;
16522;SDS011;19889;52.546;13.348;2022-12-07T14:29:28;4.40;;;2.30;;
16522;SDS011;19889;52.546;13.348;2022-12-07T14:32:01;8.90;;;2.00;;
16522;SDS011;19889;52.546;13.348;2022-12-07T14:34:52;6.90;;;2.00;;
16522;SDS011;19889;52.546;13.348;2022-12-07T14:37:20;3.97;;;2.43;;
16522;SDS011;19889;52.546;13.348;2022-12-07T14:39:47;7.10;;;2.13;;
16522;SDS011;19889;52.546;13.348;2022-12-07T14:42:15;2.70;;;1.83;;
16522;SDS011;19889;52.546;13.348;2022-12-07T14:44:43;4.57;;;1.83;;
16522;SDS011;19889;52.546;13.348;2022-12-07T14:47:10;4.20;;;1.90;;
16522;SDS011;19889;52.546;13.348;2022-12-07T14:49:38;10.93;;;2.20;;
16522;SDS011;19889;52.546;13.348;2022-12-07T14:52:05;5.40;;;2.00;;
16522;SDS011;19889;52.546;13.348;2022-12-07T14:54:37;5.93;;;2.40;;
16522;SDS011;19889;52.546;13.348;2022-12-07T14:57:04;3.43;;;2.00;;
16522;SDS011;19889;52.546;13.348;2022-12-07T14:59:32;7.47;;;1.80;;
16522;SDS011;19889;52.546;13.348;2022-12-07T15:01:59;3.30;;;1.90;;
16522;SDS011;19889;52.546;13.348;2022-12-07T15:04:26;7.03;;;2.20;;
16522;SDS011;19889;52.546;13.348;2022-12-07T15:06:57;3.93;;;1.90;;
16522;SDS011;19889;52.546;13.348;2022-12-07T15:09:24;3.10;;;1.80;;
16522;SDS011;19889;52.546;13.348;2022-12-07T15:11:51;3.37;;;1.87;;
16522;SDS011;19889;52.546;13.348;2022-12-07T15:14:18;2.57;;;1.93;;
16522;SDS011;19889;52.546;13.348;2022-12-07T15:16:47;3.23;;;1.70;;
16522;SDS011;19889;52.546;13.348;2022-12-07T15:19:14;5.83;;;1.70;;
16522;SDS011;19889;52.546;13.348;2022-12-07T15:21:42;6.47;;;1.90;;
16522;SDS011;19889;52.546;13.348;2022-12-07T15:24:10;5.40;;;1.80;;
16522;SDS011;19889;52.546;13.348;2022-12-07T15:26:38;4.67;;;1.70;;
16522;SDS011;19889;52.546;13.348;2022-12-07T15:29:05;3.30;;;1.73;;